Time;durP1;ratioP1;P1;durP2;ratioP2;P2;SDS_P1;SDS_P2;PMS_P1;PMS_P2;Temp;Humidity;BMP_temperature;BMP_pressure;BME280_temperature;BME280_humidity;BME280_pressure;Samples;Min_cycle;Max_cycle;Signal;HPM_P1;HPM_P2
2023/05/03 00:01:08;;;;;;;4.20;3.20;;;;;;;8.62;70.54;97834.93;110114;1242;59743;-73
2023/05/03 00:03:40;;;;;;;5.50;4.40;;;;;;;8.61;70.29;97836.03;110106;1244;59728;-73
2023/05/03 00:06:16;;;;;;;5.80;4.20;;;;;;;8.57;71.70;97834.34;110127;1244;71466;-73
2023/05/03 00:08:50;;;;;;;6.50;4.20;;;;;;;8.51;71.19;97827.27;110141;1241;69209;-73
2023/05/03 00:11:21;;;;;;;6.10;4.10;;;;;;;8.43;73.62;97824.91;110111;1243;69337;-73
2023/05/03 00:13:53;;;;;;;4.60;3.80;;;;;;;8.38;72.58;97824.86;110113;1245;59695;-73
2023/05/03 00:16:26;;;;;;;5.60;3.50;;;;;;;8.33;71.58;97825.82;110143;1244;59685;-73
2023/05/03 00:18:58;;;;;;;6.30;4.00;;;;;;;8.28;70.70;97823.29;110141;1244;71442;-73
2023/05/03 00:21:28;;;;;;;5.60;4.10;;;;;;;8.25;74.31;97820.67;110211;1243;69081;-73
2023/05/03 00:23:59;;;;;;;4.00;3.30;;;;;;;8.21;73.46;97821.09;110107;1245;68535;-74
2023/05/03 00:26:32;;;;;;;5.20;4.30;;;;;;;8.19;71.23;97816.88;110107;1241;59714;-74
2023/05/03 00:29:07;;;;;;;6.90;3.80;;;;;;;8.15;75.77;97812.02;110168;1241;59725;-73
2023/05/03 00:31:37;;;;;;;4.80;3.50;;;;;;;8.11;75.14;97812.61;110167;1244;71867;-73
2023/05/03 00:34:08;;;;;;;4.70;3.10;;;;;;;8.08;71.96;97808.28;110184;1245;69354;-74
2023/05/03 00:36:41;;;;;;;6.60;3.60;;;;;;;8.09;72.54;97801.64;110106;1245;68380;-74
2023/05/03 00:39:15;;;;;;;4.30;3.00;;;;;;;8.10;71.17;97796.16;110133;1241;59692;-74
2023/05/03 00:41:56;;;;;;;6.20;3.60;;;;;;;8.12;71.63;97797.78;110132;1241;59743;-74
2023/05/03 00:44:27;;;;;;;5.10;3.90;;;;;;;8.14;71.66;97799.79;110141;1241;70659;-74
2023/05/03 00:46:59;;;;;;;5.80;4.20;;;;;;;8.16;72.07;97795.67;110149;1241;69280;-74
2023/05/03 00:49:32;;;;;;;7.20;4.40;;;;;;;8.16;72.49;97794.46;110103;1244;69255;-72
2023/05/03 00:52:09;;;;;;;5.50;4.30;;;;;;;8.14;74.05;97792.85;110095;1241;59695;-75
2023/05/03 00:54:42;;;;;;;5.90;4.80;;;;;;;8.11;74.71;97791.12;110059;1244;59757;-75
2023/05/03 00:57:15;;;;;;;5.80;3.90;;;;;;;8.07;75.33;97788.92;110136;1242;70647;-73
2023/05/03 00:59:49;;;;;;;5.30;3.70;;;;;;;8.04;74.62;97786.48;110170;1241;69265;-75
2023/05/03 01:02:23;;;;;;;5.90;4.40;;;;;;;8.02;75.57;97787.99;110132;1241;68528;-73
2023/05/03 01:04:57;;;;;;;4.80;3.80;;;;;;;8.00;75.36;97784.27;110114;1244;59685;-73
2023/05/03 01:08:10;;;;;;;5.30;3.80;;;;;;;7.99;73.16;97786.05;110168;1241;59684;-73
2023/05/03 01:11:08;;;;;;;5.40;4.10;;;;;;;8.02;72.82;97781.02;110147;1245;71409;-74
2023/05/03 01:13:58;;;;;;;6.40;3.30;;;;;;;8.06;73.32;97781.46;110157;1244;69280;-73
2023/05/03 01:16:35;;;;;;;4.20;3.70;;;;;;;8.09;73.06;97777.33;110183;1245;69332;-73
2023/05/03 01:19:28;;;;;;;4.90;3.50;;;;;;;8.10;72.29;97777.27;110134;1243;59756;-76
2023/05/03 01:22:23;;;;;;;4.50;3.40;;;;;;;8.08;72.04;97777.36;110126;1244;59782;-74
2023/05/03 01:25:16;;;;;;;4.50;3.00;;;;;;;8.08;71.89;97779.14;110163;1241;70754;-74
2023/05/03 01:27:52;;;;;;;3.90;3.10;;;;;;;8.07;70.96;97780.41;110120;1241;68323;-74
2023/05/03 01:30:26;;;;;;;4.70;3.70;;;;;;;8.08;71.36;97779.13;110170;1241;69100;-74
2023/05/03 01:33:02;;;;;;;4.40;3.70;;;;;;;8.13;71.57;97777.65;110181;1242;59742;-74
2023/05/03 01:35:52;;;;;;;4.40;3.80;;;;;;;8.17;72.03;97774.25;110089;1244;59781;-74
2023/05/03 01:38:30;;;;;;;4.20;2.90;;;;;;;8.18;73.67;97776.65;110141;1241;71401;-74
2023/05/03 01:41:09;;;;;;;6.10;3.80;;;;;;;8.16;72.61;97773.98;110089;1244;69158;-74
2023/05/03 01:43:47;;;;;;;4.20;3.30;;;;;;;8.14;71.77;97772.70;110141;1240;68589;-74
2023/05/03 01:46:20;;;;;;;4.10;3.30;;;;;;;8.12;70.95;97776.63;110111;1243;59699;-74
2023/05/03 01:48:55;;;;;;;6.60;5.10;;;;;;;8.10;71.30;97781.80;110163;1241;59631;-74
2023/05/03 01:51:27;;;;;;;7.00;4.80;;;;;;;8.03;75.75;97785.30;110115;1241;71239;-75
2023/05/03 01:54:00;;;;;;;8.90;5.60;;;;;;;7.95;78.00;97787.67;110155;1243;69053;-74
2023/05/03 01:56:35;;;;;;;7.50;5.10;;;;;;;7.85;78.69;97788.58;110106;1244;69156;-74
2023/05/03 01:59:09;;;;;;;6.00;4.20;;;;;;;7.75;75.99;97787.75;110172;1243;59710;-74
2023/05/03 02:01:44;;;;;;;6.80;4.70;;;;;;;7.66;79.63;97792.23;110107;1244;59689;-75
2023/05/03 02:04:20;;;;;;;7.30;4.50;;;;;;;7.58;78.94;97790.22;110145;1241;70458;-74
2023/05/03 02:06:52;;;;;;;8.00;5.30;;;;;;;7.50;80.30;97788.23;109546;1243;698971;-74
2023/05/03 02:09:25;;;;;;;8.40;4.50;;;;;;;7.43;81.09;97792.80;110114;1244;69152;-75
2023/05/03 02:11:58;;;;;;;6.30;4.20;;;;;;;7.34;82.87;97797.45;110124;1243;59750;-75
2023/05/03 02:14:31;;;;;;;6.40;4.10;;;;;;;7.25;84.31;97795.02;110189;1241;59671;-74
2023/05/03 02:17:02;;;;;;;6.00;4.10;;;;;;;7.18;83.06;97794.30;110128;1241;71383;-74
2023/05/03 02:19:38;;;;;;;5.10;3.50;;;;;;;7.12;82.69;97794.97;110137;1246;69117;-75
2023/05/03 02:22:14;;;;;;;4.30;3.00;;;;;;;7.05;79.43;97793.27;110171;1243;68481;-75
2023/05/03 02:24:47;;;;;;;6.00;3.50;;;;;;;7.01;78.01;97790.52;110152;1246;59746;-75
2023/05/03 02:27:19;;;;;;;6.00;3.20;;;;;;;7.00;80.47;97789.21;110146;1243;59681;-75
2023/05/03 02:29:57;;;;;;;5.20;3.90;;;;;;;6.98;77.47;97793.99;110151;1244;71424;-75
2023/05/03 02:32:31;;;;;;;5.60;3.80;;;;;;;6.95;79.55;97797.06;110125;1244;68336;-75
2023/05/03 02:35:08;;;;;;;4.60;3.70;;;;;;;6.92;84.38;97800.16;110153;1241;68542;-75
2023/05/03 02:37:41;;;;;;;6.00;4.10;;;;;;;6.88;83.34;97801.41;110109;1243;59753;-75
2023/05/03 02:40:16;;;;;;;4.80;3.50;;;;;;;6.85;83.94;97804.19;110142;1245;59723;-75
2023/05/03 02:42:50;;;;;;;5.80;3.80;;;;;;;6.80;83.15;97804.25;110097;1244;70709;-75
2023/05/03 02:45:23;;;;;;;8.10;7.00;;;;;;;6.72;86.69;97810.38;110068;1244;69685;-75
2023/05/03 02:47:54;;;;;;;6.80;5.30;;;;;;;6.60;84.02;97815.14;110155;1245;69406;-75
2023/05/03 02:50:24;;;;;;;7.40;4.90;;;;;;;6.48;84.23;97814.70;110106;1244;59689;-75
2023/05/03 02:52:55;;;;;;;6.40;4.60;;;;;;;6.42;84.25;97817.27;110116;1242;59740;-75
2023/05/03 02:55:26;;;;;;;6.50;4.40;;;;;;;6.37;86.95;97820.81;110106;1244;71245;-75
2023/05/03 02:57:57;;;;;;;5.70;4.20;;;;;;;6.33;89.46;97825.50;110131;1244;69149;-75
2023/05/03 03:00:30;;;;;;;6.00;4.80;;;;;;;6.27;90.89;97826.30;110130;1244;69148;-75
2023/05/03 03:03:01;;;;;;;7.00;4.50;;;;;;;6.22;90.27;97830.02;110118;1244;59741;-75
2023/05/03 03:05:32;;;;;;;7.40;4.80;;;;;;;6.17;91.32;97829.38;110117;1242;59704;-75
2023/05/03 03:08:03;;;;;;;8.20;4.60;;;;;;;6.13;92.22;97829.39;110167;1241;70669;-75
2023/05/03 03:10:34;;;;;;;6.90;4.50;;;;;;;6.10;91.62;97829.73;110089;1245;68349;-75
2023/05/03 03:13:04;;;;;;;7.40;4.60;;;;;;;6.06;91.36;97829.06;109993;1244;69280;-75
2023/05/03 03:15:35;;;;;;;7.10;5.70;;;;;;;6.02;89.70;97829.61;110096;1244;59702;-76
2023/05/03 03:18:07;;;;;;;8.90;5.60;;;;;;;6.00;89.65;97830.56;110190;1242;59697;-75
2023/05/03 03:20:37;;;;;;;6.80;4.60;;;;;;;5.98;88.08;97830.52;110112;1241;71190;-75
2023/05/03 03:23:07;;;;;;;5.80;4.00;;;;;;;5.97;87.31;97835.54;110113;1241;68596;-76
2023/05/03 03:25:36;;;;;;;5.80;4.80;;;;;;;5.98;84.25;97839.29;110132;1241;69405;-74
2023/05/03 03:28:05;;;;;;;5.30;4.10;;;;;;;6.01;83.80;97838.98;110165;1241;59702;-76
2023/05/03 03:30:37;;;;;;;7.10;4.90;;;;;;;6.03;84.01;97843.04;110194;1241;59688;-76
2023/05/03 03:33:15;;;;;;;8.80;5.60;;;;;;;6.05;88.48;97846.05;110137;1241;71791;-76
2023/05/03 03:35:45;;;;;;;7.00;5.20;;;;;;;6.05;90.53;97852.27;110128;1244;69398;-77
2023/05/03 03:38:17;;;;;;;5.90;5.20;;;;;;;6.06;88.26;97854.14;110172;1244;69903;-76
2023/05/03 03:40:51;;;;;;;5.30;4.40;;;;;;;6.08;91.70;97854.76;110139;1251;59670;-76
2023/05/03 03:43:21;;;;;;;8.90;5.10;;;;;;;6.10;91.74;97854.30;110159;1241;60140;-75
2023/05/03 03:45:53;;;;;;;6.20;5.10;;;;;;;6.12;88.03;97856.11;110111;1244;70486;-76
2023/05/03 03:48:24;;;;;;;5.90;4.60;;;;;;;6.16;86.56;97857.33;110119;1244;68258;-76
2023/05/03 03:50:54;;;;;;;7.10;5.20;;;;;;;6.19;84.61;97857.16;110087;1244;69451;-76
2023/05/03 03:53:25;;;;;;;5.50;4.60;;;;;;;6.22;83.60;97857.38;110079;1241;59732;-76
2023/05/03 03:55:55;;;;;;;6.70;5.50;;;;;;;6.26;85.55;97862.21;110127;1242;59711;-76
2023/05/03 03:58:24;;;;;;;8.20;5.40;;;;;;;6.31;86.02;97864.02;110295;1241;71936;-74
2023/05/03 04:00:56;;;;;;;6.60;5.00;;;;;;;6.37;89.33;97864.23;110160;1244;69300;-74
2023/05/03 04:03:26;;;;;;;5.30;4.30;;;;;;;6.46;86.63;97864.86;110116;1245;68289;-73
2023/05/03 04:05:55;;;;;;;5.90;4.80;;;;;;;6.59;87.03;97873.05;110085;1241;59720;-74
2023/05/03 04:08:26;;;;;;;6.40;5.20;;;;;;;6.74;90.10;97866.91;110148;1243;59688;-74
2023/05/03 04:10:55;;;;;;;8.40;5.50;;;;;;;6.96;90.40;97866.00;110163;1244;70318;-74
2023/05/03 04:13:25;;;;;;;5.70;4.50;;;;;;;7.18;89.08;97868.69;110127;1244;69295;-74
2023/05/03 04:15:56;;;;;;;7.60;5.00;;;;;;;7.38;88.23;97873.55;110135;1243;68367;-74
2023/05/03 04:18:26;;;;;;;6.90;4.60;;;;;;;7.57;87.86;97871.48;110149;1248;59741;-74
2023/05/03 04:20:56;;;;;;;6.40;5.10;;;;;;;7.78;86.48;97873.14;110197;1242;59677;-76
2023/05/03 04:23:27;;;;;;;5.00;4.20;;;;;;;8.05;85.41;97876.16;110113;1241;71619;-75
2023/05/03 04:25:57;;;;;;;5.40;4.20;;;;;;;8.34;84.58;97874.38;110120;1241;69255;-75
2023/05/03 04:28:26;;;;;;;5.60;4.40;;;;;;;8.66;83.06;97876.59;110179;1244;68408;-75
2023/05/03 04:30:57;;;;;;;6.40;4.70;;;;;;;8.99;82.30;97876.39;110225;1244;59699;-75
2023/05/03 04:33:29;;;;;;;7.10;5.40;;;;;;;9.30;81.66;97877.12;110196;1248;59680;-77
2023/05/03 04:36:04;;;;;;;8.30;6.50;;;;;;;9.52;80.39;97879.31;110184;1241;71793;-75
2023/05/03 04:38:34;;;;;;;7.70;5.80;;;;;;;9.69;79.47;97875.77;110186;1241;69236;-76
2023/05/03 04:41:05;;;;;;;7.30;5.60;;;;;;;9.88;77.61;97877.79;110190;1245;69301;-76
2023/05/03 04:43:35;;;;;;;7.70;4.80;;;;;;;10.12;77.59;97876.79;110195;1244;59678;-77
2023/05/03 04:46:04;;;;;;;5.40;4.00;;;;;;;10.54;79.32;97880.02;110320;1244;60145;-76
2023/05/03 04:48:36;;;;;;;6.30;4.30;;;;;;;11.02;77.88;97876.30;110238;1244;71352;-77
2023/05/03 04:51:05;;;;;;;5.60;4.10;;;;;;;11.46;72.15;97878.91;110188;1243;69796;-75
2023/05/03 04:53:34;;;;;;;8.80;5.00;;;;;;;11.85;71.78;97876.20;110146;1241;69845;-75
2023/05/03 04:56:11;;;;;;;8.00;5.40;;;;;;;12.17;68.39;97884.40;110148;1244;59676;-75
2023/05/03 04:58:41;;;;;;;7.20;5.60;;;;;;;12.53;67.70;97886.18;110196;1245;59675;-74
2023/05/03 05:01:12;;;;;;;8.30;5.20;;;;;;;12.74;66.35;97885.87;110190;1241;71979;-75
2023/05/03 05:03:42;;;;;;;6.70;5.10;;;;;;;12.90;65.52;97883.46;110207;1243;69229;-77
2023/05/03 05:06:16;;;;;;;5.60;5.00;;;;;;;12.76;64.27;97883.62;110165;1244;68333;-76
2023/05/03 05:08:46;;;;;;;6.70;4.50;;;;;;;13.09;63.11;97884.45;110169;1241;59680;-76
2023/05/03 05:11:15;;;;;;;9.40;5.40;;;;;;;13.27;62.09;97879.81;110094;1244;59711;-76
2023/05/03 05:13:46;;;;;;;11.00;6.50;;;;;;;13.54;62.55;97878.46;110162;1244;71489;-75
2023/05/03 05:16:16;;;;;;;16.40;9.00;;;;;;;13.65;61.96;97877.74;110139;1244;69432;-76
2023/05/03 05:18:50;;;;;;;10.80;6.80;;;;;;;13.85;61.52;97875.13;110142;1244;69816;-76
2023/05/03 05:21:20;;;;;;;10.90;6.50;;;;;;;14.03;61.63;97875.95;110161;1244;59746;-76
2023/05/03 05:23:49;;;;;;;9.80;5.70;;;;;;;14.22;61.25;97874.30;110174;1243;59643;-76
2023/05/03 05:26:19;;;;;;;7.60;5.50;;;;;;;14.53;61.26;97876.38;110132;1244;70785;-74
2023/05/03 05:28:49;;;;;;;8.60;5.30;;;;;;;14.83;60.07;97871.99;110123;1244;69805;-76
2023/05/03 05:31:19;;;;;;;9.20;6.10;;;;;;;14.95;58.35;97869.89;110146;1243;69852;-76
2023/05/03 05:33:48;;;;;;;8.90;6.40;;;;;;;14.96;58.60;97872.51;110177;1241;59751;-76
2023/05/03 05:36:18;;;;;;;;;;;;;;;15.05;58.51;97868.19;110187;1243;59675;-75
2023/05/03 05:38:48;;;;;;;18.20;10.90;;;;;;;15.02;58.94;97868.97;110160;1241;71837;-75
2023/05/03 05:41:18;;;;;;;13.40;9.20;;;;;;;14.76;59.41;97872.39;110205;1243;69626;-75
2023/05/03 05:43:47;;;;;;;12.90;8.80;;;;;;;14.73;59.08;97872.84;110172;1244;69577;-75
2023/05/03 05:46:19;;;;;;;25.30;15.10;;;;;;;14.87;59.55;97875.17;110138;1241;59751;-75
2023/05/03 05:48:52;;;;;;;37.00;20.90;;;;;;;14.89;59.98;97871.98;110211;1241;60055;-75
2023/05/03 05:51:21;;;;;;;38.40;23.40;;;;;;;15.03;59.42;97878.05;110199;1241;72277;-75
2023/05/03 05:53:51;;;;;;;54.10;34.30;;;;;;;15.13;58.94;97870.72;110144;1241;69065;-75
2023/05/03 05:56:20;;;;;;;52.50;31.00;;;;;;;15.18;58.85;97870.66;110195;1243;68139;-75
2023/05/03 05:58:50;;;;;;;37.10;24.80;;;;;;;15.14;59.56;97861.81;110129;1244;59698;-75
2023/05/03 06:01:20;;;;;;;24.40;15.70;;;;;;;15.23;59.30;97858.95;110176;1245;59697;-75
2023/05/03 06:03:49;;;;;;;18.40;11.60;;;;;;;15.35;58.01;97851.79;110138;1241;71309;-75
2023/05/03 06:06:19;;;;;;;9.20;5.60;;;;;;;15.44;56.48;97850.51;110159;1244;69354;-74
2023/05/03 06:08:50;;;;;;;7.10;5.00;;;;;;;15.65;54.83;97841.52;110165;1241;69097;-74
2023/05/03 06:11:22;;;;;;;5.10;4.10;;;;;;;16.01;54.61;97849.09;110042;1241;59631;-76
2023/05/03 06:13:51;;;;;;;5.80;3.70;;;;;;;16.23;50.97;97843.93;110114;1241;59753;-74
2023/05/03 06:16:21;;;;;;;5.20;3.50;;;;;;;16.38;50.48;97847.10;110055;1244;71431;-74
2023/05/03 06:18:51;;;;;;;6.10;4.30;;;;;;;16.52;49.95;97842.75;110163;1241;67530;-74
2023/05/03 06:21:20;;;;;;;6.70;4.00;;;;;;;16.75;49.51;97843.52;110132;1244;68508;-74
2023/05/03 06:23:49;;;;;;;5.30;4.30;;;;;;;16.95;49.21;97844.93;110122;1244;59770;-74
2023/05/03 06:26:18;;;;;;;5.30;4.20;;;;;;;17.23;49.00;97838.05;110118;1243;59644;-74
2023/05/03 06:28:50;;;;;;;5.30;3.70;;;;;;;17.67;48.05;97832.83;110090;1241;69637;-74
2023/05/03 06:31:21;;;;;;;4.80;3.50;;;;;;;17.90;45.70;97835.65;110131;1243;69811;-75
2023/05/03 06:33:51;;;;;;;6.30;3.30;;;;;;;18.02;44.06;97833.61;110162;1243;68539;-75
2023/05/03 06:36:21;;;;;;;5.10;3.30;;;;;;;18.50;44.49;97836.63;110045;1245;59699;-75
2023/05/03 06:38:50;;;;;;;5.30;3.80;;;;;;;18.70;43.86;97832.63;110134;1243;59792;-74
2023/05/03 06:41:18;;;;;;;3.90;2.50;;;;;;;18.95;43.03;97831.71;110111;1244;71580;-74
2023/05/03 06:43:47;;;;;;;5.30;2.90;;;;;;;19.11;42.39;97829.02;110147;1241;69592;-74
2023/05/03 06:46:16;;;;;;;5.40;2.80;;;;;;;19.19;42.15;97823.27;110159;1244;69076;-74
2023/05/03 06:48:47;;;;;;;4.90;2.70;;;;;;;19.31;42.67;97820.11;110147;1244;59741;-74
2023/05/03 06:51:16;;;;;;;4.60;2.80;;;;;;;19.33;40.59;97820.63;110153;1244;59687;-74
2023/05/03 06:53:46;;;;;;;4.60;2.50;;;;;;;19.44;40.72;97822.33;110141;1243;71140;-74
2023/05/03 06:56:14;;;;;;;3.40;2.30;;;;;;;19.41;40.36;97826.34;110119;1244;69819;-73
2023/05/03 06:58:43;;;;;;;3.10;2.40;;;;;;;19.38;40.54;97826.15;110105;1244;68285;-73
2023/05/03 07:01:12;;;;;;;3.50;2.60;;;;;;;19.46;41.47;97829.73;110159;1245;59720;-74
2023/05/03 07:03:41;;;;;;;3.60;2.50;;;;;;;19.12;39.75;97826.84;110122;1243;59678;-74
2023/05/03 07:06:10;;;;;;;4.00;2.70;;;;;;;19.24;40.48;97829.44;110113;1244;70748;-74
2023/05/03 07:08:39;;;;;;;3.80;2.60;;;;;;;19.12;39.78;97832.66;110158;1243;68508;-73
2023/05/03 07:11:09;;;;;;;5.90;2.60;;;;;;;19.05;40.64;97833.13;110151;1243;69489;-73
2023/05/03 07:13:38;;;;;;;3.40;2.50;;;;;;;19.05;41.99;97831.77;110193;1241;59694;-73
2023/05/03 07:16:08;;;;;;;4.80;2.90;;;;;;;19.04;40.43;97825.63;110153;1245;59681;-75
2023/05/03 07:18:37;;;;;;;3.20;2.70;;;;;;;18.97;41.14;97823.53;110137;1241;70393;-75
2023/05/03 07:21:06;;;;;;;5.10;2.80;;;;;;;18.91;42.22;97825.59;110120;1243;69799;-73
2023/05/03 07:23:37;;;;;;;5.20;3.00;;;;;;;19.01;43.33;97825.83;110147;1241;68650;-74
2023/05/03 07:26:07;;;;;;;6.90;3.10;;;;;;;19.24;42.33;97827.35;110125;1243;60017;-74
2023/05/03 07:28:36;;;;;;;4.20;2.70;;;;;;;19.34;41.43;97827.25;110169;1241;59676;-74
2023/05/03 07:31:05;;;;;;;4.90;2.80;;;;;;;19.48;41.61;97823.25;110146;1243;70919;-74
2023/05/03 07:33:36;;;;;;;3.50;2.90;;;;;;;19.59;40.66;97826.77;110121;1241;67613;-74
2023/05/03 07:36:06;;;;;;;4.60;2.50;;;;;;;19.64;39.83;97825.39;110102;1241;69274;-74
2023/05/03 07:38:35;;;;;;;2.90;2.60;;;;;;;19.50;38.59;97827.17;110230;1241;59757;-74
2023/05/03 07:41:05;;;;;;;4.50;2.30;;;;;;;19.41;39.19;97832.36;110166;1243;59691;-74
2023/05/03 07:43:34;;;;;;;2.80;2.50;;;;;;;19.37;39.66;97834.63;110125;1244;71764;-74
2023/05/03 07:46:03;;;;;;;;;;;;;;;19.35;38.89;97835.77;110155;1243;69842;-74
2023/05/03 07:48:33;;;;;;;3.50;2.60;;;;;;;19.23;38.48;97831.15;110092;1241;68524;-73
2023/05/03 07:51:03;;;;;;;3.60;2.30;;;;;;;19.29;38.70;97827.88;110122;1245;59715;-73
2023/05/03 07:53:34;;;;;;;4.20;2.60;;;;;;;19.28;39.07;97825.80;110089;1241;59708;-73
2023/05/03 07:56:04;;;;;;;3.40;2.20;;;;;;;19.37;39.47;97828.13;110167;1241;71951;-73
2023/05/03 07:58:33;;;;;;;;;;;;;;;19.41;39.31;97827.69;110111;1245;69039;-73
2023/05/03 08:01:08;;;;;;;3.70;2.40;;;;;;;19.41;39.61;97827.36;110147;1245;70246;-73
2023/05/03 08:03:37;;;;;;;3.30;2.30;;;;;;;19.39;39.31;97822.67;110136;1241;59712;-73
2023/05/03 08:06:07;;;;;;;;;;;;;;;19.43;39.58;97819.25;110163;1243;59650;-73
2023/05/03 08:08:37;;;;;;;3.20;2.30;;;;;;;19.43;39.21;97822.96;110126;1241;71997;-73
2023/05/03 08:11:06;;;;;;;2.90;2.30;;;;;;;19.49;38.47;97814.88;110155;1244;69264;-73
2023/05/03 08:13:36;;;;;;;2.80;2.30;;;;;;;19.60;38.22;97816.41;110136;1243;69739;-73
2023/05/03 08:16:05;;;;;;;5.40;2.70;;;;;;;19.76;38.44;97818.25;110176;1242;59706;-73
2023/05/03 08:18:34;;;;;;;3.50;2.20;;;;;;;19.78;38.19;97815.77;110161;1243;59709;-73
2023/05/03 08:21:05;;;;;;;3.10;2.10;;;;;;;19.84;38.63;97818.88;110168;1241;71817;-73
2023/05/03 08:23:34;;;;;;;3.70;2.90;;;;;;;20.23;37.71;97821.98;110190;1241;68494;-73
2023/05/03 08:26:08;;;;;;;2.90;2.20;;;;;;;20.22;36.46;97824.25;110160;1244;69880;-73
2023/05/03 08:28:37;;;;;;;3.60;2.20;;;;;;;20.44;36.86;97828.83;110175;1244;59631;-73
2023/05/03 08:31:07;;;;;;;;;;;;;;;20.55;36.75;97824.33;110317;1245;59679;-73
2023/05/03 08:33:37;;;;;;;3.80;2.30;;;;;;;20.58;36.95;97825.60;110306;1244;71973;-72
2023/05/03 08:36:07;;;;;;;4.80;2.30;;;;;;;20.80;36.37;97830.82;110239;1241;68779;-74
2023/05/03 08:38:39;;;;;;;5.00;2.20;;;;;;;20.92;35.82;97836.56;110233;1241;69963;-74
2023/05/03 08:41:17;;;;;;;2.90;2.20;;;;;;;21.10;35.55;97836.95;110200;1243;59678;-74
2023/05/03 08:43:52;;;;;;;2.10;1.90;;;;;;;21.14;33.64;97834.35;110303;1241;59668;-74
2023/05/03 08:46:27;;;;;;;3.40;2.50;;;;;;;21.29;34.27;97831.86;110197;1243;70621;-75
2023/05/03 08:48:58;;;;;;;3.20;2.10;;;;;;;21.45;32.84;97825.14;110161;1241;68403;-74
2023/05/03 08:51:28;;;;;;;2.80;2.10;;;;;;;21.47;33.00;97822.14;110183;1243;68515;-74
2023/05/03 08:53:58;;;;;;;4.60;2.50;;;;;;;21.40;33.45;97822.73;110319;1241;59697;-73
2023/05/03 08:56:39;;;;;;;4.30;2.60;;;;;;;21.30;34.24;97817.77;110132;1243;59683;-74
2023/05/03 08:59:15;;;;;;;3.60;2.30;;;;;;;21.19;33.99;97816.98;110165;1244;71378;-73
2023/05/03 09:01:44;;;;;;;4.30;2.10;;;;;;;21.14;33.78;97817.88;110156;1244;69802;-73
2023/05/03 09:04:13;;;;;;;3.80;2.10;;;;;;;21.26;33.96;97813.05;110157;1241;67831;-74
2023/05/03 09:06:43;;;;;;;3.30;2.20;;;;;;;21.54;33.67;97810.35;110114;1244;59725;-72
2023/05/03 09:09:13;;;;;;;;;;;;;;;21.73;32.87;97813.48;110186;1242;59742;-73
2023/05/03 09:11:42;;;;;;;2.50;1.90;;;;;;;21.77;32.72;97810.70;110159;1241;71412;-73
2023/05/03 09:14:12;;;;;;;3.60;2.40;;;;;;;21.78;32.70;97809.40;110160;1245;69177;-73
2023/05/03 09:16:45;;;;;;;3.20;2.20;;;;;;;21.87;32.81;97805.70;110107;1241;68533;-73
2023/05/03 09:19:15;;;;;;;4.00;2.30;;;;;;;22.06;32.43;97801.86;110131;1243;59750;-74
2023/05/03 09:21:48;;;;;;;3.30;2.20;;;;;;;22.32;32.41;97800.23;110213;1242;59692;-73
2023/05/03 09:24:19;;;;;;;2.60;2.10;;;;;;;22.55;32.25;97799.54;110140;1241;71373;-73
2023/05/03 09:26:50;;;;;;;5.10;2.10;;;;;;;22.86;32.26;97799.47;110178;1243;67758;-73
2023/05/03 09:29:28;;;;;;;2.50;2.00;;;;;;;23.12;31.76;97793.83;110124;1241;69393;-73
2023/05/03 09:32:04;;;;;;;4.80;2.20;;;;;;;23.28;30.31;97794.86;110176;1243;60069;-74
2023/05/03 09:34:37;;;;;;;3.40;2.40;;;;;;;23.56;30.21;97797.46;110308;1241;59745;-74
2023/05/03 09:37:06;;;;;;;3.00;2.10;;;;;;;23.72;29.88;97794.84;110097;1242;70942;-74
2023/05/03 09:39:38;;;;;;;4.20;2.30;;;;;;;23.63;29.37;97789.13;110276;1241;69409;-74
2023/05/03 09:42:14;;;;;;;4.80;2.60;;;;;;;23.40;29.10;97789.04;110261;1243;69744;-74
2023/05/03 09:44:52;;;;;;;4.10;2.20;;;;;;;23.11;29.68;97787.46;110251;1241;59947;-74
2023/05/03 09:47:24;;;;;;;2.90;1.80;;;;;;;23.07;29.80;97784.73;110292;1244;59708;-73
2023/05/03 09:49:53;;;;;;;3.60;2.00;;;;;;;22.70;29.73;97783.98;110271;1241;71209;-74
2023/05/03 09:52:23;;;;;;;2.20;1.60;;;;;;;22.86;30.10;97782.45;110239;1244;69770;-74
2023/05/03 09:54:53;;;;;;;4.30;1.80;;;;;;;23.30;29.50;97781.73;110247;1241;68887;-73
2023/05/03 09:57:22;;;;;;;5.20;2.60;;;;;;;22.88;29.44;97783.05;110245;1241;59670;-72
2023/05/03 09:59:52;;;;;;;2.70;2.10;;;;;;;23.11;29.67;97777.41;110125;1244;59694;-72
2023/05/03 10:02:21;;;;;;;2.40;1.80;;;;;;;23.11;29.25;97772.97;110152;1244;71415;-73
2023/05/03 10:04:52;;;;;;;3.10;1.80;;;;;;;23.49;28.93;97773.33;110328;1245;70244;-73
2023/05/03 10:07:25;;;;;;;3.50;2.00;;;;;;;23.80;28.54;97771.42;110295;1243;69973;-73
2023/05/03 10:09:56;;;;;;;4.60;2.30;;;;;;;23.62;29.46;97771.78;110077;1243;59688;-73
2023/05/03 10:12:27;;;;;;;4.80;2.20;;;;;;;23.42;29.09;97765.60;110307;1242;59677;-72
2023/05/03 10:15:00;;;;;;;2.80;2.10;;;;;;;22.96;30.52;97764.76;110124;1244;71772;-72
2023/05/03 10:17:33;;;;;;;2.90;1.90;;;;;;;22.66;31.16;97765.98;110170;1241;69164;-72
2023/05/03 10:20:39;;;;;;;2.60;2.00;;;;;;;22.95;30.28;97760.66;110136;1241;69051;-73
2023/05/03 10:23:10;;;;;;;3.80;2.10;;;;;;;22.99;30.30;97763.11;110145;1241;59821;-74
2023/05/03 10:26:12;;;;;;;5.80;2.10;;;;;;;22.92;30.21;97763.73;110054;1244;59727;-74
2023/05/03 10:28:41;;;;;;;3.80;2.10;;;;;;;22.72;30.00;97764.67;110138;1243;71956;-72
2023/05/03 10:31:47;;;;;;;3.10;2.10;;;;;;;22.59;30.90;97761.73;110133;1241;70072;-72
2023/05/03 10:34:21;;;;;;;4.20;2.00;;;;;;;22.72;31.12;97758.71;110166;1244;68753;-72
2023/05/03 10:36:54;;;;;;;2.40;1.90;;;;;;;23.08;29.65;97755.64;110183;1244;59696;-73
2023/05/03 10:39:23;;;;;;;3.60;2.10;;;;;;;22.88;29.63;97755.53;110144;1243;59649;-73
2023/05/03 10:42:08;;;;;;;2.70;2.00;;;;;;;22.93;29.32;97751.23;110160;1243;69655;-73
2023/05/03 10:44:39;;;;;;;2.90;2.00;;;;;;;22.28;30.43;97754.73;110191;1241;69050;-72
2023/05/03 10:47:23;;;;;;;2.70;2.00;;;;;;;22.06;30.42;97752.96;110155;1241;68312;-73
2023/05/03 10:50:14;;;;;;;3.30;2.10;;;;;;;21.92;30.91;97760.34;110283;1241;60253;-73
2023/05/03 10:52:42;;;;;;;2.40;2.00;;;;;;;22.01;30.68;97752.30;110253;1241;59753;-73
2023/05/03 10:55:15;;;;;;;2.50;2.10;;;;;;;21.83;30.07;97752.89;110258;1241;70650;-72
2023/05/03 10:57:45;;;;;;;3.40;2.30;;;;;;;21.80;30.46;97750.13;110084;1241;69205;-73
2023/05/03 11:00:21;;;;;;;5.90;2.10;;;;;;;22.03;30.79;97750.25;110107;1241;69279;-70
2023/05/03 11:03:18;;;;;;;3.10;2.20;;;;;;;21.99;31.19;97750.11;110127;1242;59753;-72
2023/05/03 11:05:49;;;;;;;3.80;2.30;;;;;;;22.08;30.91;97749.23;110151;1241;59743;-72
2023/05/03 11:08:21;;;;;;;2.20;1.90;;;;;;;21.70;31.01;97747.14;110124;1244;70666;-72
2023/05/03 11:10:58;;;;;;;2.80;1.60;;;;;;;21.33;31.20;97745.13;110129;1241;68180;-72
2023/05/03 11:13:29;;;;;;;2.10;1.60;;;;;;;21.66;31.55;97747.08;110122;1244;68705;-73
2023/05/03 11:15:58;;;;;;;3.00;2.20;;;;;;;21.82;31.45;97741.71;110149;1243;59743;-72
2023/05/03 11:18:28;;;;;;;;;;;;;;;21.84;30.78;97742.75;110157;1245;59681;-72
2023/05/03 11:20:57;;;;;;;3.20;2.00;;;;;;;21.87;31.19;97743.59;110120;1241;71236;-74
2023/05/03 11:23:28;;;;;;;3.40;1.80;;;;;;;22.14;31.76;97740.52;110237;1244;69879;-73
2023/05/03 11:25:57;;;;;;;3.10;1.70;;;;;;;22.53;31.46;97740.52;110129;1244;68165;-72
2023/05/03 11:28:26;;;;;;;3.00;2.00;;;;;;;22.86;31.35;97740.88;110162;1241;59761;-72
2023/05/03 11:30:56;;;;;;;3.30;2.10;;;;;;;22.63;31.60;97740.31;110125;1244;59695;-72
2023/05/03 11:33:27;;;;;;;4.40;2.00;;;;;;;22.18;31.34;97738.84;110172;1243;71850;-72
2023/05/03 11:35:56;;;;;;;3.40;1.90;;;;;;;21.66;31.83;97737.48;110156;1241;69229;-72
2023/05/03 11:38:26;;;;;;;2.70;1.60;;;;;;;21.62;32.35;97732.65;110155;1241;69204;-72
2023/05/03 11:40:55;;;;;;;1.90;1.60;;;;;;;21.61;31.94;97736.97;110147;1243;59695;-72
2023/05/03 11:43:27;;;;;;;3.40;1.80;;;;;;;21.78;30.91;97736.13;110154;1241;59722;-72
2023/05/03 11:45:58;;;;;;;2.90;1.80;;;;;;;21.64;31.15;97730.27;110129;1241;70607;-72
2023/05/03 11:48:31;;;;;;;2.80;2.00;;;;;;;21.97;31.69;97728.44;110149;1241;68484;-72
2023/05/03 11:51:08;;;;;;;3.40;1.90;;;;;;;22.01;32.34;97724.69;110122;1241;68650;-73
2023/05/03 11:53:42;;;;;;;3.40;2.00;;;;;;;21.86;32.22;97720.84;110167;1241;59711;-73